Time;durP1;ratioP1;P1;durP2;ratioP2;P2;SDS_P1;SDS_P2;PMS_P1;PMS_P2;Temp;Humidity;BMP_temperature;BMP_pressure;BME280_temperature;BME280_humidity;BME280_pressure;Samples;Min_cycle;Max_cycle;Signal;HPM_P1;HPM_P2
2023/10/11 00:00:32;;;;;;;;;;;;;;;12.28;100.00;98340.75;1223179;75;3009282;-70
2023/10/11 00:03:04;;;;;;;;;;;;;;;12.15;100.00;98339.03;1227105;75;2919601;-71
2023/10/11 00:05:41;;;;;;;;;;;;;;;12.29;100.00;98334.81;1223052;75;2982165;-69
2023/10/11 00:08:17;;;;;;;;;;;;;;;12.07;100.00;98326.13;1225569;75;2994085;-71
2023/10/11 00:10:53;;;;;;;;;;;;;;;11.87;100.00;98329.47;1226055;75;2910744;-70
2023/10/11 00:13:28;;;;;;;;;;;;;;;12.04;100.00;98333.31;1221679;75;3056386;-70
2023/10/11 00:16:07;;;;;;;;;;;;;;;12.18;100.00;98326.34;1213173;83;3855300;-73
2023/10/11 00:18:41;;;;;;;;;;;;;;;12.24;100.00;98324.47;1209773;83;3871240;-72
2023/10/11 00:21:15;;;;;;;;;;;;;;;12.21;100.00;98321.91;1226879;75;2917132;-73
2023/10/11 00:23:51;;;;;;;;;;;;;;;12.17;100.00;98318.56;1225793;83;2934258;-69
2023/10/11 00:26:23;;;;;;;;;;;;;;;12.17;100.00;98318.56;1227538;75;2918487;-68
2023/10/11 00:28:55;;;;;;;;;;;;;;;12.14;100.00;98317.53;1186218;75;5022351;-69
2023/10/11 00:31:31;;;;;;;;;;;;;;;12.04;100.00;98321.59;1191844;75;5540122;-71
2023/10/11 00:34:06;;;;;;;;;;;;;;;12.06;100.00;98317.13;1222766;75;3016796;-73
2023/10/11 00:36:40;;;;;;;;;;;;;;;11.82;100.00;98322.63;1227200;75;2921343;-69
2023/10/11 00:39:17;;;;;;;;;;;;;;;11.81;100.00;98320.34;1227059;75;2916693;-70
2023/10/11 00:41:50;;;;;;;;;;;;;;;11.60;100.00;98319.41;1226872;75;2918354;-72
2023/10/11 00:44:22;;;;;;;;;;;;;;;11.69;100.00;98319.38;1226836;75;2918192;-70
2023/10/11 00:47:00;;;;;;;;;;;;;;;11.62;100.00;98314.22;1211458;75;4067190;-74
2023/10/11 00:49:39;;;;;;;;;;;;;;;11.84;100.00;98308.44;1197620;75;5025732;-69
2023/10/11 00:52:13;;;;;;;;;;;;;;;11.56;100.00;98307.84;1207943;75;4089563;-68
2023/10/11 00:54:48;;;;;;;;;;;;;;;11.60;100.00;98311.19;1225709;75;2916261;-68
2023/10/11 00:57:21;;;;;;;;;;;;;;;11.57;100.00;98310.16;1227300;75;2912421;-70
2023/10/11 00:59:53;;;;;;;;;;;;;;;11.62;100.00;98308.75;1223535;75;3073473;-69
2023/10/11 01:02:25;;;;;;;;;;;;;;;11.73;100.00;98311.69;1226614;75;2915316;-69
2023/10/11 01:05:01;;;;;;;;;;;;;;;11.53;100.00;98306.81;1212903;83;3930616;-69
2023/10/11 01:07:33;;;;;;;;;;;;;;;11.50;100.00;98311.25;1221944;75;3061843;-71
2023/10/11 01:10:10;;;;;;;;;;;;;;;11.55;100.00;98309.09;1224890;75;2966570;-68
2023/10/11 01:12:42;;;;;;;;;;;;;;;11.41;100.00;98305.06;1223371;75;3099253;-73
2023/10/11 01:15:19;;;;;;;;;;;;;;;11.42;100.00;98306.56;1212320;83;3985633;-68
2023/10/11 01:17:53;;;;;;;;;;;;;;;11.46;100.00;98294.19;1227838;83;2925395;-71
2023/10/11 01:20:29;;;;;;;;;;;;;;;11.56;100.00;98299.63;1222024;83;3077487;-69
2023/10/11 01:23:04;;;;;;;;;;;;;;;11.57;100.00;98301.13;1226310;75;2916839;-73
2023/10/11 01:25:37;;;;;;;;;;;;;;;11.54;100.00;98302.81;1223705;83;3041832;-70
2023/10/11 01:28:09;;;;;;;;;;;;;;;11.38;100.00;98304.00;1213312;75;3939883;-71
2023/10/11 01:30:41;;;;;;;;;;;;;;;11.25;100.00;98300.69;1227311;83;2916779;-69
2023/10/11 01:33:16;;;;;;;;;;;;;;;10.83;100.00;98315.94;1223248;75;2956542;-70
2023/10/11 01:35:49;;;;;;;;;;;;;;;11.23;100.00;98308.63;1197104;75;3994517;-72
2023/10/11 01:38:24;;;;;;;;;;;;;;;10.97;100.00;98303.56;1224361;75;2925862;-71
2023/10/11 01:40:57;;;;;;;;;;;;;;;11.09;100.00;98305.34;1212951;75;3863200;-68
2023/10/11 01:43:29;;;;;;;;;;;;;;;11.20;100.00;98301.34;1225618;75;2920677;-74
2023/10/11 01:46:02;;;;;;;;;;;;;;;11.16;100.00;98293.31;1224917;75;2931714;-71
2023/10/11 01:48:34;;;;;;;;;;;;;;;11.22;100.00;98296.91;1224892;75;2921802;-70
2023/10/11 01:51:09;;;;;;;;;;;;;;;11.19;100.00;98300.59;1197191;75;4938617;-70
2023/10/11 01:53:44;;;;;;;;;;;;;;;11.22;100.00;98291.44;1222359;83;3031681;-71
2023/10/11 01:56:17;;;;;;;;;;;;;;;11.20;100.00;98293.88;1209198;75;3847472;-68
2023/10/11 01:58:49;;;;;;;;;;;;;;;11.24;100.00;98290.97;1223419;75;3046078;-73
2023/10/11 02:01:25;;;;;;;;;;;;;;;11.17;100.00;98283.09;1227104;75;2917423;-68
2023/10/11 02:04:03;;;;;;;;;;;;;;;10.99;100.00;98290.19;1225870;75;2923646;-68
2023/10/11 02:06:35;;;;;;;;;;;;;;;11.12;100.00;98297.44;1225745;75;2924913;-71
2023/10/11 02:09:12;;;;;;;;;;;;;;;11.08;100.00;98297.59;1214540;75;3789265;-70
2023/10/11 02:11:45;;;;;;;;;;;;;;;11.06;100.00;98291.81;1227534;75;2916271;-70
2023/10/11 02:14:18;;;;;;;;;;;;;;;10.76;100.00;98293.59;1224118;75;2921932;-70
2023/10/11 02:16:53;;;;;;;;;;;;;;;10.91;100.00;98288.97;1226991;83;2915231;-68
2023/10/11 02:19:25;;;;;;;;;;;;;;;10.90;100.00;98292.94;1226372;83;2920847;-69
2023/10/11 02:21:59;;;;;;;;;;;;;;;10.93;100.00;98291.25;1226940;83;2927939;-69
2023/10/11 02:24:35;;;;;;;;;;;;;;;10.93;100.00;98299.47;1228361;83;2928209;-69
2023/10/11 02:27:17;;;;;;;;;;;;;;;10.86;100.00;98290.34;1212598;75;3827642;-69
2023/10/11 02:29:50;;;;;;;;;;;;;;;10.63;100.00;98294.56;1227362;75;2922595;-69
2023/10/11 02:32:31;;;;;;;;;;;;;;;10.73;100.00;98292.53;1227130;75;2918617;-68
2023/10/11 02:35:07;;;;;;;;;;;;;;;10.78;100.00;98291.16;1203506;83;4783588;-70
2023/10/11 02:37:40;;;;;;;;;;;;;;;10.52;100.00;98291.53;1225715;75;2917545;-71
2023/10/11 02:40:16;;;;;;;;;;;;;;;10.59;100.00;98284.97;1226928;75;2927967;-70
2023/10/11 02:42:49;;;;;;;;;;;;;;;10.55;100.00;98281.63;1212792;75;3785968;-75
2023/10/11 02:45:22;;;;;;;;;;;;;;;10.47;100.00;98273.00;1227718;75;2913145;-70
2023/10/11 02:47:59;;;;;;;;;;;;;;;10.53;100.00;98286.81;1225566;75;2915430;-70
2023/10/11 02:50:36;;;;;;;;;;;;;;;10.54;100.00;98285.59;1222756;75;3078586;-69
2023/10/11 02:53:21;;;;;;;;;;;;;;;10.57;100.00;98279.94;1223823;75;2917009;-71
2023/10/11 02:56:03;;;;;;;;;;;;;;;10.33;100.00;98285.31;1228043;75;2921630;-68
2023/10/11 02:58:38;;;;;;;;;;;;;;;10.12;100.00;98281.50;1223426;83;3031536;-70
2023/10/11 03:01:15;;;;;;;;;;;;;;;10.11;100.00;98280.00;1226858;75;2914310;-69
2023/10/11 03:03:47;;;;;;;;;;;;;;;9.96;100.00;98282.59;1224154;75;2923120;-70
2023/10/11 03:06:21;;;;;;;;;;;;;;;10.07;100.00;98276.66;1225500;75;2954450;-67
2023/10/11 03:08:54;;;;;;;;;;;;;;;9.98;100.00;98285.63;1214954;75;3849343;-74
2023/10/11 03:11:29;;;;;;;;;;;;;;;10.06;100.00;98279.84;1199676;75;4044348;-70
2023/10/11 03:14:04;;;;;;;;;;;;;;;10.02;100.00;98283.50;1221565;75;3080426;-69
2023/10/11 03:16:37;;;;;;;;;;;;;;;10.03;100.00;98287.00;1212432;75;3968668;-68
2023/10/11 03:19:10;;;;;;;;;;;;;;;10.12;100.00;98284.25;1223546;75;2955016;-69
2023/10/11 03:21:44;;;;;;;;;;;;;;;10.20;100.00;98284.72;1225020;75;2942136;-70
2023/10/11 03:24:19;;;;;;;;;;;;;;;10.24;100.00;98285.31;1209314;75;4002643;-68
2023/10/11 03:26:54;;;;;;;;;;;;;;;10.14;100.00;98286.53;1222065;75;3046385;-66
2023/10/11 03:29:30;;;;;;;;;;;;;;;10.14;100.00;98289.25;1223972;75;2964046;-72
2023/10/11 03:32:03;;;;;;;;;;;;;;;10.30;100.00;98288.22;1226101;75;2926641;-72
2023/10/11 03:34:36;;;;;;;;;;;;;;;10.35;100.00;98282.13;1226362;83;2928312;-69
2023/10/11 03:37:10;;;;;;;;;;;;;;;10.39;100.00;98283.50;1226204;75;2924915;-72
2023/10/11 03:39:44;;;;;;;;;;;;;;;10.43;100.00;98283.31;1198146;75;3993926;-68
2023/10/11 03:42:19;;;;;;;;;;;;;;;10.37;100.00;98285.94;1128795;75;8747893;-68
2023/10/11 03:44:53;;;;;;;;;;;;;;;10.44;100.00;98282.13;1224085;75;2928534;-72
2023/10/11 03:47:26;;;;;;;;;;;;;;;10.48;100.00;98288.19;1210737;75;3829565;-70
2023/10/11 03:49:59;;;;;;;;;;;;;;;10.47;100.00;98289.41;1224674;83;2929430;-68
2023/10/11 03:52:33;;;;;;;;;;;;;;;10.51;100.00;98292.75;1212112;75;3995052;-68
2023/10/11 03:55:09;;;;;;;;;;;;;;;10.44;100.00;98287.59;1188355;83;4874616;-69
2023/10/11 03:57:46;;;;;;;;;;;;;;;10.40;100.00;98282.28;1222540;75;3100577;-68
2023/10/11 04:00:26;;;;;;;;;;;;;;;10.42;100.00;98290.03;1223601;75;2973204;-70
2023/10/11 04:03:03;;;;;;;;;;;;;;;10.54;100.00;98280.88;1152278;75;8960137;-70
2023/10/11 04:05:39;;;;;;;;;;;;;;;10.58;100.00;98286.19;1224321;75;2989712;-69
2023/10/11 04:08:12;;;;;;;;;;;;;;;10.59;100.00;98287.72;1118893;83;11905570;-68
2023/10/11 04:10:49;;;;;;;;;;;;;;;10.61;100.00;98286.03;1226014;75;2923195;-70
2023/10/11 04:13:30;;;;;;;;;;;;;;;10.58;100.00;98281.50;1039612;75;21258039;-69
2023/10/11 04:16:07;;;;;;;;;;;;;;;10.67;100.00;98280.69;1223129;75;3070246;-70
2023/10/11 04:18:39;;;;;;;;;;;;;;;10.20;100.00;98280.00;1225266;75;2926327;-69
2023/10/11 04:21:26;;;;;;;;;;;;;;;10.25;100.00;98270.41;1226149;75;2923635;-69
2023/10/11 04:23:58;;;;;;;;;;;;;;;10.44;100.00;98271.94;1223059;75;2945506;-70
2023/10/11 04:26:36;;;;;;;;;;;;;;;10.53;100.00;98284.06;1226144;75;2920180;-74
2023/10/11 04:29:17;;;;;;;;;;;;;;;10.59;100.00;98277.53;1223443;75;2970953;-70
2023/10/11 04:32:09;;;;;;;;;;;;;;;10.45;100.00;98281.66;1221807;75;3084105;-72
2023/10/11 04:34:48;;;;;;;;;;;;;;;10.51;100.00;98281.81;1224458;75;2974851;-70
2023/10/11 04:37:27;;;;;;;;;;;;;;;10.58;100.00;98292.44;1222514;75;3098225;-70
2023/10/11 04:40:22;;;;;;;;;;;;;;;10.20;100.00;98282.72;1224858;83;2948654;-70
2023/10/11 04:43:04;;;;;;;;;;;;;;;10.42;100.00;98287.28;1225687;75;2924203;-70
2023/10/11 04:45:46;;;;;;;;;;;;;;;10.58;100.00;98275.22;1225421;75;2923210;-69
2023/10/11 04:48:29;;;;;;;;;;;;;;;10.43;100.00;98278.59;1210495;75;3917683;-71
2023/10/11 04:51:07;;;;;;;;;;;;;;;10.47;100.00;98283.19;1225224;75;2929390;-70
2023/10/11 04:53:54;;;;;;;;;;;;;;;10.53;100.00;98276.59;1224669;75;2933977;-69
2023/10/11 04:59:16;;;;;;;;;;;;;;;10.30;100.00;98272.56;1224875;75;2916164;-66
2023/10/11 05:02:08;;;;;;;;;;;;;;;10.48;100.00;98281.94;1224673;83;2924298;-72
2023/10/11 05:04:44;;;;;;;;;;;;;;;10.49;100.00;98278.00;1224939;75;2923389;-68
2023/10/11 05:07:19;;;;;;;;;;;;;;;10.45;100.00;98275.41;1224992;75;2921045;-68
2023/10/11 05:10:30;;;;;;;;;;;;;;;10.30;100.00;98271.81;1219853;75;3078680;-73
2023/10/11 05:13:05;;;;;;;;;;;;;;;10.31;100.00;98273.31;1209778;75;3855754;-69
2023/10/11 05:15:42;;;;;;;;;;;;;;;10.21;100.00;98278.78;1220169;75;3027720;-67
2023/10/11 05:18:23;;;;;;;;;;;;;;;10.13;100.00;98277.56;1222546;75;2925381;-69
2023/10/11 05:21:06;;;;;;;;;;;;;;;10.03;100.00;98287.00;1224400;75;2931333;-68
2023/10/11 05:23:52;;;;;;;;;;;;;;;9.95;100.00;98283.03;1222692;83;3023865;-72
2023/10/11 05:29:24;;;;;;;;;;;;;;;9.77;100.00;98281.81;1211134;75;3985920;-71
2023/10/11 05:32:19;;;;;;;;;;;;;;;9.84;100.00;98288.97;1224082;75;2917849;-69
2023/10/11 05:35:07;;;;;;;;;;;;;;;9.91;100.00;98296.88;1210790;75;4094094;-71
2023/10/11 05:51:26;;;;;;;;;;;;;;;10.29;100.00;98289.44;1221902;83;3104294;-73
2023/10/11 05:54:00;;;;;;;;;;;;;;;10.48;100.00;98295.63;1225219;75;2932036;-72
2023/10/11 05:56:33;;;;;;;;;;;;;;;10.31;100.00;98285.00;1184094;75;5961537;-70
2023/10/11 05:59:09;;;;;;;;;;;;;;;10.44;100.00;98296.56;1223026;75;3064427;-69
2023/10/11 06:01:43;;;;;;;;;;;;;;;10.56;100.00;98299.56;1223550;83;2969764;-69
2023/10/11 06:04:16;;;;;;;;;;;;;;;10.56;100.00;98307.78;1211947;75;3893961;-69
2023/10/11 06:06:57;;;;;;;;;;;;;;;10.50;100.00;98304.16;1223036;75;2997488;-72
2023/10/11 06:09:30;;;;;;;;;;;;;;;10.91;100.00;98302.66;1223854;75;2990520;-68
2023/10/11 06:12:04;;;;;;;;;;;;;;;10.97;100.00;98303.56;1223432;75;3014828;-70
2023/10/11 06:14:37;;;;;;;;;;;;;;;11.29;100.00;98307.53;1220589;75;3086198;-70
2023/10/11 06:17:16;;;;;;;;;;;;;;;11.29;100.00;98304.03;1152743;75;8381260;-69
2023/10/11 06:19:53;;;;;;;;;;;;;;;11.93;100.00;98316.66;1212578;83;3861974;-76
2023/10/11 06:22:28;;;;;;;;;;;;;;;11.47;100.00;98306.69;1210609;75;3978941;-73
2023/10/11 06:25:07;;;;;;;;;;;;;;;11.79;100.00;98307.09;1224802;75;2922961;-69
2023/10/11 06:30:24;;;;;;;;;;;;;;;16.57;94.87;98305.31;1211302;75;3975712;-72
2023/10/11 06:32:57;;;;;;;;;;;;;;;18.11;82.52;98299.81;1225015;75;2931468;-69
2023/10/11 06:35:30;;;;;;;;;;;;;;;19.05;74.80;98296.94;1221428;75;2972611;-70
2023/10/11 06:38:05;;;;;;;;;;;;;;;19.17;72.02;98303.13;1197070;75;5007724;-71
2023/10/11 06:40:39;;;;;;;;;;;;;;;19.85;69.02;98300.41;1210983;75;4064821;-73
2023/10/11 06:43:12;;;;;;;;;;;;;;;20.93;63.63;98300.44;1224781;75;2927307;-71
2023/10/11 06:45:45;;;;;;;;;;;;;;;19.68;68.18;98308.94;1224747;75;2920491;-67
2023/10/11 06:48:18;;;;;;;;;;;;;;;17.02;81.63;98310.91;1224929;75;2927348;-73
2023/10/11 06:50:52;;;;;;;;;;;;;;;16.05;93.72;98312.00;1225135;83;2927888;-71
2023/10/11 06:53:27;;;;;;;;;;;;;;;15.63;97.98;98310.78;1224591;75;2925956;-72
2023/10/11 06:56:00;;;;;;;;;;;;;;;18.67;77.44;98310.56;1225065;75;2922737;-72
2023/10/11 06:58:43;;;;;;;;;;;;;;;19.86;68.97;98310.25;1226120;75;2921737;-71
2023/10/11 07:01:16;;;;;;;;;;;;;;;20.51;66.51;98304.84;1222821;75;2970152;-69
2023/10/11 07:03:52;;;;;;;;;;;;;;;22.55;59.94;98304.13;1224656;83;2925646;-74
2023/10/11 07:06:24;;;;;;;;;;;;;;;23.75;55.94;98297.84;1225864;75;2951658;-74
2023/10/11 07:08:59;;;;;;;;;;;;;;;23.98;55.12;98305.56;1223150;75;3015409;-72
2023/10/11 07:11:50;;;;;;;;;;;;;;;24.09;53.59;98302.47;1212386;75;3920680;-75
2023/10/11 07:14:25;;;;;;;;;;;;;;;22.79;55.67;98309.94;1225218;75;2934409;-74
2023/10/11 07:17:00;;;;;;;;;;;;;;;17.59;74.98;98315.09;1224419;75;2929245;-69
2023/10/11 07:19:36;;;;;;;;;;;;;;;17.43;85.59;98313.13;1226234;75;2929426;-70
2023/10/11 07:22:12;;;;;;;;;;;;;;;15.83;100.00;98315.44;1219433;75;3070371;-74
2023/10/11 07:24:55;;;;;;;;;;;;;;;17.61;90.04;98298.00;1206273;75;4107262;-71
2023/10/11 07:27:37;;;;;;;;;;;;;;;19.94;71.99;98302.06;1222375;75;3031070;-70
2023/10/11 07:30:16;;;;;;;;;;;;;;;22.20;65.37;98302.63;1221910;83;2986183;-73
2023/10/11 07:32:50;;;;;;;;;;;;;;;22.04;60.38;98304.47;1223034;75;2937843;-73
2023/10/11 07:35:27;;;;;;;;;;;;;;;23.14;57.76;98300.97;1209284;83;3994120;-69
2023/10/11 07:38:00;;;;;;;;;;;;;;;27.34;48.81;98291.41;1224493;75;2930505;-72
2023/10/11 07:40:45;;;;;;;;;;;;;;;29.70;44.23;98298.47;1226495;75;2930719;-71
2023/10/11 07:43:18;;;;;;;;;;;;;;;28.50;45.07;98296.47;1211255;75;3996762;-68
2023/10/11 07:45:50;;;;;;;;;;;;;;;31.12;40.26;98292.94;1226225;75;2925386;-72
2023/10/11 07:48:24;;;;;;;;;;;;;;;32.76;37.76;98292.19;1224759;75;2939171;-75
2023/10/11 07:50:57;;;;;;;;;;;;;;;33.07;36.41;98280.59;1197375;75;5085175;-70
2023/10/11 07:53:29;;;;;;;;;;;;;;;33.20;36.45;98279.22;1221509;75;3073176;-68
2023/10/11 07:56:04;;;;;;;;;;;;;;;30.38;40.06;98286.38;1226147;75;2921343;-69
2023/10/11 07:58:36;;;;;;;;;;;;;;;28.91;41.33;98279.88;1221625;75;2967289;-71
2023/10/11 08:01:15;;;;;;;;;;;;;;;27.21;45.09;98283.28;1225129;75;2927042;-69
2023/10/11 08:03:47;;;;;;;;;;;;;;;29.51;41.92;98274.56;1225235;75;2920675;-70
2023/10/11 08:06:23;;;;;;;;;;;;;;;27.54;45.74;98269.06;1201762;75;4947801;-70
2023/10/11 08:08:59;;;;;;;;;;;;;;;27.40;46.58;98266.59;1225956;75;2922409;-71
2023/10/11 08:11:45;;;;;;;;;;;;;;;26.32;48.51;98260.31;1223658;75;2923122;-69
2023/10/11 08:14:21;;;;;;;;;;;;;;;26.91;47.11;98254.09;1225668;75;2928912;-72
2023/10/11 08:16:56;;;;;;;;;;;;;;;26.68;46.93;98254.28;1221891;75;3077604;-69
2023/10/11 08:19:28;;;;;;;;;;;;;;;28.45;45.54;98256.00;1225478;83;2933346;-70
2023/10/11 08:22:09;;;;;;;;;;;;;;;26.93;46.89;98264.75;1224278;75;2923948;-72
2023/10/11 08:24:46;;;;;;;;;;;;;;;25.65;48.71;98281.13;1220494;75;3094721;-73
2023/10/11 08:27:27;;;;;;;;;;;;;;;26.11;49.01;98272.56;1222035;75;3039048;-70
2023/10/11 08:30:08;;;;;;;;;;;;;;;25.81;50.90;98281.84;1225806;75;2918372;-73
2023/10/11 08:32:42;;;;;;;;;;;;;;;24.16;51.93;98273.03;1223573;83;2996926;-74
2023/10/11 08:35:17;;;;;;;;;;;;;;;24.89;51.51;98273.53;1225448;75;2929906;-73
2023/10/11 08:37:52;;;;;;;;;;;;;;;24.62;51.70;98282.28;1222268;75;2967995;-75
2023/10/11 08:40:29;;;;;;;;;;;;;;;26.54;48.83;98272.72;1224018;83;2926342;-70
2023/10/11 08:43:05;;;;;;;;;;;;;;;25.87;48.71;98273.97;1224641;75;2923937;-71
2023/10/11 08:45:47;;;;;;;;;;;;;;;27.06;46.91;98261.66;1224623;75;2932762;-70
2023/10/11 08:48:20;;;;;;;;;;;;;;;27.97;45.40;98262.06;1225256;75;2921684;-71
2023/10/11 08:50:55;;;;;;;;;;;;;;;27.96;45.04;98254.19;1220450;75;2941836;-71
2023/10/11 08:53:27;;;;;;;;;;;;;;;25.53;48.16;98259.69;1223982;75;2926469;-73
2023/10/11 08:56:00;;;;;;;;;;;;;;;25.47;50.82;98259.84;1212203;75;3859609;-72
2023/10/11 08:58:36;;;;;;;;;;;;;;;23.05;54.49;98261.59;1225152;75;2919329;-72
2023/10/11 09:01:09;;;;;;;;;;;;;;;22.26;58.76;98258.63;1223237;75;2925312;-72
2023/10/11 09:03:42;;;;;;;;;;;;;;;22.44;60.03;98256.19;1225758;75;2930482;-69
2023/10/11 09:06:25;;;;;;;;;;;;;;;23.91;55.79;98247.56;1221604;75;3009551;-69
2023/10/11 09:09:00;;;;;;;;;;;;;;;22.85;58.94;98247.09;1222209;75;3017083;-72
2023/10/11 09:11:32;;;;;;;;;;;;;;;22.40;58.70;98241.84;1224705;83;2921052;-72
2023/10/11 09:14:22;;;;;;;;;;;;;;;22.70;59.46;98233.00;1224508;83;2920288;-72
2023/10/11 09:16:57;;;;;;;;;;;;;;;21.53;61.95;98237.09;1220108;75;3090717;-71
2023/10/11 09:19:32;;;;;;;;;;;;;;;22.27;60.67;98237.06;1219707;75;3028628;-71
2023/10/11 09:22:17;;;;;;;;;;;;;;;23.43;58.89;98233.91;1224456;75;2918868;-70
2023/10/11 09:24:50;;;;;;;;;;;;;;;23.55;58.79;98232.31;1222554;75;3044700;-70
2023/10/11 09:27:22;;;;;;;;;;;;;;;23.48;58.79;98233.00;1225270;75;2921565;-71
2023/10/11 09:29:58;;;;;;;;;;;;;;;23.41;57.75;98235.75;1224249;75;2924464;-70
2023/10/11 09:32:35;;;;;;;;;;;;;;;22.04;62.65;98231.97;1223555;75;2949194;-71
2023/10/11 09:35:23;;;;;;;;;;;;;;;22.07;62.67;98228.09;1223801;75;2933448;-70
2023/10/11 09:37:57;;;;;;;;;;;;;;;23.15;58.82;98237.47;1219603;75;3056957;-72
2023/10/11 09:40:31;;;;;;;;;;;;;;;23.42;57.35;98231.66;1222998;75;2983600;-68
2023/10/11 09:43:04;;;;;;;;;;;;;;;23.65;56.22;98231.78;1223658;75;2979065;-69
2023/10/11 09:45:44;;;;;;;;;;;;;;;24.34;55.93;98226.41;1220564;75;2985820;-69
2023/10/11 09:48:18;;;;;;;;;;;;;;;25.34;53.68;98223.66;1224100;75;2941844;-70
2023/10/11 09:50:57;;;;;;;;;;;;;;;23.97;56.11;98236.97;1226415;75;2924897;-72
2023/10/11 09:53:30;;;;;;;;;;;;;;;24.28;55.00;98232.19;1222482;83;3086142;-74
2023/10/11 09:56:09;;;;;;;;;;;;;;;24.08;55.38;98233.09;1222881;75;3002639;-69
2023/10/11 09:58:47;;;;;;;;;;;;;;;24.17;55.12;98224.91;1224868;83;2930575;-71
2023/10/11 10:01:26;;;;;;;;;;;;;;;24.06;55.48;98233.66;1224234;75;2925221;-69
2023/10/11 10:04:05;;;;;;;;;;;;;;;24.65;54.65;98224.44;1220272;75;3013598;-71
2023/10/11 10:06:37;;;;;;;;;;;;;;;24.27;54.27;98222.31;1225458;75;2939324;-70
2023/10/11 10:09:22;;;;;;;;;;;;;;;26.00;52.23;98208.47;1223311;75;2956165;-70
2023/10/11 10:12:25;;;;;;;;;;;;;;;25.97;51.41;98220.06;1222118;75;2925106;-72
2023/10/11 10:15:13;;;;;;;;;;;;;;;26.81;49.90;98215.97;1224377;75;2922085;-71
2023/10/11 10:18:15;;;;;;;;;;;;;;;26.72;48.87;98208.94;1221163;83;3005023;-70
2023/10/11 10:20:52;;;;;;;;;;;;;;;25.68;51.18;98212.69;1224259;75;2921037;-71
2023/10/11 10:23:37;;;;;;;;;;;;;;;26.53;49.88;98203.81;1221683;75;3041434;-70
2023/10/11 10:26:33;;;;;;;;;;;;;;;26.75;50.68;98205.00;1222449;75;2995793;-74
2023/10/11 10:29:07;;;;;;;;;;;;;;;26.78;50.07;98193.34;1222374;83;2973598;-72
2023/10/11 10:31:59;;;;;;;;;;;;;;;27.31;49.31;98188.53;1224721;75;2920007;-74
2023/10/11 10:34:32;;;;;;;;;;;;;;;28.06;47.80;98189.50;1225415;75;2923980;-70
2023/10/11 10:37:10;;;;;;;;;;;;;;;26.79;50.06;98191.25;1224187;75;2936027;-70
2023/10/11 10:40:07;;;;;;;;;;;;;;;27.43;49.29;98185.22;1223596;75;2968802;-69
2023/10/11 10:42:39;;;;;;;;;;;;;;;27.96;48.44;98184.56;1223663;75;2983703;-72
2023/10/11 10:45:12;;;;;;;;;;;;;;;28.20;48.61;98185.72;1221935;75;3010874;-71
2023/10/11 10:47:42;;;;;;;;;;;;;;;28.31;47.45;98180.88;1226239;75;2921997;-69
2023/10/11 10:50:21;;;;;;;;;;;;;;;28.46;47.28;98177.88;1226835;75;2860566;-72
2023/10/11 10:52:54;;;;;;;;;;;;;;;29.57;46.49;98175.50;1224413;83;2921013;-73
2023/10/11 10:55:34;;;;;;;;;;;;;;;29.68;45.48;98174.94;1224765;75;2935190;-70
2023/10/11 10:58:04;;;;;;;;;;;;;;;30.15;44.47;98161.25;1225420;75;2932447;-71
2023/10/11 11:00:40;;;;;;;;;;;;;;;29.12;45.85;98165.88;1224024;75;2922996;-71
2023/10/11 11:03:32;;;;;;;;;;;;;;;28.58;46.87;98158.34;1224475;75;2921872;-71
2023/10/11 11:06:11;;;;;;;;;;;;;;;29.35;46.01;98151.31;1224540;75;2922308;-73
2023/10/11 11:08:44;;;;;;;;;;;;;;;29.12;46.32;98148.94;1222051;75;2962419;-69
2023/10/11 11:11:25;;;;;;;;;;;;;;;28.68;47.20;98153.47;1222461;75;2990010;-71
2023/10/11 11:13:55;;;;;;;;;;;;;;;29.40;46.31;98150.28;1224785;75;2928138;-72
2023/10/11 11:16:29;;;;;;;;;;;;;;;28.87;47.10;98141.50;1227502;75;2809508;-72
2023/10/11 11:19:16;;;;;;;;;;;;;;;30.32;44.73;98142.66;1225057;75;2927267;-71
2023/10/11 11:21:46;;;;;;;;;;;;;;;28.76;47.42;98139.25;1223957;75;2954782;-75
2023/10/11 11:24:27;;;;;;;;;;;;;;;29.80;45.71;98131.97;1223419;75;2923962;-72
2023/10/11 11:26:58;;;;;;;;;;;;;;;30.24;44.06;98127.94;1226249;75;2922370;-74
2023/10/11 11:29:33;;;;;;;;;;;;;;;30.74;43.99;98133.50;1222448;75;3067025;-72
2023/10/11 11:32:14;;;;;;;;;;;;;;;30.57;43.24;98122.44;1224494;75;2943074;-67
2023/10/11 11:35:10;;;;;;;;;;;;;;;29.58;43.60;98128.28;1222158;75;3100690;-68
2023/10/11 11:37:42;;;;;;;;;;;;;;;30.35;43.38;98124.50;1226487;75;2924584;-71
2023/10/11 11:40:19;;;;;;;;;;;;;;;30.50;43.80;98118.47;1225144;75;2923710;-73
2023/10/11 11:42:51;;;;;;;;;;;;;;;30.38;43.67;98117.66;1225984;75;2918070;-69
2023/10/11 11:45:25;;;;;;;;;;;;;;;31.74;41.23;98105.25;1222608;75;2940379;-71
2023/10/11 11:47:58;;;;;;;;;;;;;;;31.52;42.21;98095.38;1225312;75;2966606;-72
2023/10/11 11:50:32;;;;;;;;;;;;;;;30.57;42.68;98097.75;1225630;75;2918104;-70
2023/10/11 11:53:05;;;;;;;;;;;;;;;29.38;43.54;98110.66;1223704;75;2931027;-72
2023/10/11 11:55:39;;;;;;;;;;;;;;;29.32;43.80;98102.50;1220310;83;3021792;-73
2023/10/11 11:58:16;;;;;;;;;;;;;;;28.64;44.34;98111.63;1224145;75;2926252;-72
2023/10/11 12:01:08;;;;;;;;;;;;;;;28.69;44.01;98104.22;1207052;75;4066124;-72
2023/10/11 12:03:40;;;;;;;;;;;;;;;30.68;41.80;98087.84;1225033;75;2925601;-70
2023/10/11 12:06:26;;;;;;;;;;;;;;;29.75;42.91;98096.34;1223417;75;3012378;-72
2023/10/11 12:08:57;;;;;;;;;;;;;;;29.85;42.27;98094.97;1224705;75;2925299;-72
2023/10/11 12:11:33;;;;;;;;;;;;;;;29.82;42.94;98087.69;1224270;75;2924129;-73
2023/10/11 12:14:10;;;;;;;;;;;;;;;29.14;43.77;98089.91;1225249;75;2923850;-73
2023/10/11 12:16:43;;;;;;;;;;;;;;;29.28;43.42;98088.09;1225784;83;2925205;-71
2023/10/11 12:19:15;;;;;;;;;;;;;;;30.21;43.27;98087.53;1224934;75;2922170;-76
2023/10/11 12:21:48;;;;;;;;;;;;;;;29.69;43.04;98079.72;1224844;75;2936715;-69
2023/10/11 12:24:21;;;;;;;;;;;;;;;29.48;44.37;98083.91;1213729;83;3829171;-74
2023/10/11 12:26:58;;;;;;;;;;;;;;;28.41;46.67;98086.66;1224378;75;2938232;-71
2023/10/11 12:29:34;;;;;;;;;;;;;;;28.84;46.09;98077.88;1201285;83;8807524;-72
2023/10/11 12:32:07;;;;;;;;;;;;;;;28.37;47.19;98077.91;1225416;75;2921147;-69
2023/10/11 12:34:39;;;;;;;;;;;;;;;28.45;46.77;98074.94;1225607;75;2924932;-71
2023/10/11 12:37:14;;;;;;;;;;;;;;;28.31;46.38;98071.84;1225385;75;2918927;-71
2023/10/11 12:39:46;;;;;;;;;;;;;;;29.10;46.09;98067.78;1224879;75;2926272;-71
2023/10/11 12:42:22;;;;;;;;;;;;;;;28.40;46.80;98062.63;1221025;75;2985980;-72
2023/10/11 12:44:59;;;;;;;;;;;;;;;28.39;47.77;98063.25;1222256;83;3044918;-73
2023/10/11 12:47:31;;;;;;;;;;;;;;;28.65;47.04;98065.25;1224818;75;2916675;-75
2023/10/11 12:50:03;;;;;;;;;;;;;;;28.21;47.40;98054.91;1226317;75;2918496;-67
2023/10/11 12:52:38;;;;;;;;;;;;;;;28.93;46.77;98051.00;1223721;75;2930642;-72
2023/10/11 12:55:12;;;;;;;;;;;;;;;29.04;46.87;98056.03;1224775;83;2922946;-73
2023/10/11 12:57:48;;;;;;;;;;;;;;;29.65;47.16;98045.53;1223696;75;2935819;-74
2023/10/11 13:00:31;;;;;;;;;;;;;;;29.62;47.20;98047.47;1225469;75;2920181;-72
2023/10/11 13:03:15;;;;;;;;;;;;;;;30.49;44.58;98032.22;1225284;83;2921435;-73
2023/10/11 13:05:48;;;;;;;;;;;;;;;30.37;44.59;98042.72;1223222;75;2969488;-72
2023/10/11 13:08:24;;;;;;;;;;;;;;;29.62;45.35;98041.09;1223758;75;2926840;-68
2023/10/11 13:10:56;;;;;;;;;;;;;;;29.44;45.28;98038.50;1224414;75;2926973;-75
2023/10/11 13:13:31;;;;;;;;;;;;;;;29.35;44.27;98035.69;1220455;75;3034916;-72
2023/10/11 13:16:06;;;;;;;;;;;;;;;29.69;44.98;98032.47;1220499;75;3076907;-72
2023/10/11 13:18:40;;;;;;;;;;;;;;;29.72;45.22;98033.38;1224898;75;2935235;-72
2023/10/11 13:21:16;;;;;;;;;;;;;;;30.90;43.10;98026.41;1224267;75;2942029;-68
2023/10/11 13:23:48;;;;;;;;;;;;;;;30.87;42.21;98022.00;1224968;75;2924903;-72
2023/10/11 13:26:21;;;;;;;;;;;;;;;29.53;45.35;98029.22;1224931;75;2920744;-72
2023/10/11 13:28:56;;;;;;;;;;;;;;;29.30;46.41;98029.03;1186879;75;5835363;-70
2023/10/11 13:31:29;;;;;;;;;;;;;;;29.26;46.22;98023.81;1223638;75;2920329;-74